Wetterdaten: Woche 21.04.08 - 27.04.08 (KW17)
Datum Zeit Temp. a Sch. Temp. a Son. Temp. a Bod. Feuchte a. Luftdruck Regen Wind Richtung Sonnenschein Helligkeit Taupunkt Windchill
21.04.2008 00:00 6,0 C 6,2 C 5,0 C 85 % 1006 hPa 0,0 l/m 3,9 m/s (3 Bft) O-SO 0,00 h 0 lux 3,6 C 1,0 C
21.04.2008 01:00 5,8 C 5,9 C 4,7 C 86 % 1005 hPa 0,0 l/m 3,8 m/s (3 Bft) O-NO 0,00 h 0 lux 3,6 C 0,9 C
21.04.2008 02:00 5,3 C 5,5 C 4,3 C 88 % 1005 hPa 0,0 l/m 2,6 m/s (2 Bft) O 0,00 h 0 lux 3,4 C 3,0 C
21.04.2008 03:00 5,2 C 5,3 C 4,2 C 89 % 1005 hPa 0,0 l/m 3,0 m/s (2 Bft) O-SO 0,00 h 0 lux 3,6 C 1,8 C
21.04.2008 04:00 5,3 C 5,3 C 4,2 C 90 % 1004 hPa 0,0 l/m 3,9 m/s (3 Bft) O-SO 0,00 h 0 lux 3,9 C 0,1 C
21.04.2008 05:00 5,3 C 5,2 C 4,1 C 91 % 1003 hPa 0,0 l/m 4,1 m/s (3 Bft) O 0,00 h 0 lux 3,9 C -0,2 C
21.04.2008 06:00 5,2 C 5,1 C 4,0 C 91 % 1004 hPa 0,0 l/m 3,5 m/s (3 Bft) O 0,00 h 990 lux 3,8 C 0,9 C
21.04.2008 07:00 6,3 C 5,9 C 5,2 C 89 % 1004 hPa 0,0 l/m 4,9 m/s (3 Bft) O-NO 0,00 h 5,66 klux 4,5 C -0,5 C
21.04.2008 08:00 7,9 C 7,3 C 7,1 C 83 % 1004 hPa 0,0 l/m 5,0 m/s (3 Bft) O-NO 0,08 h 20,9 klux 5,1 C 1,8 C
21.04.2008 09:00 9,3 C 8,9 C 8,7 C 77 % 1003 hPa 0,0 l/m 6,0 m/s (4 Bft) O 0,00 h 28,8 klux 5,4 C 2,1 C
21.04.2008 10:00 11,4 C 11,7 C 11,0 C 69 % 1003 hPa 0,0 l/m 7,3 m/s (4 Bft) O-SO 0,67 h 48,2 klux 6,0 C 3,5 C
21.04.2008 11:00 12,8 C 15,0 C 13,0 C 64 % 1002 hPa 0,0 l/m 7,2 m/s (4 Bft) O 0,08 h 43,8 klux 6,1 C 5,4 C
21.04.2008 12:00 14,3 C 17,1 C 15,4 C 59 % 1002 hPa 0,0 l/m 7,8 m/s (4 Bft) O 0,52 h 64,2 klux 6,3 C 7,2 C
21.04.2008 13:00 14,9 C 18,8 C 15,5 C 58 % 1001 hPa 0,0 l/m 7,9 m/s (4 Bft) O 0,25 h 48,2 klux 6,6 C 7,8 C
21.04.2008 14:00 15,2 C 16,8 C 15,4 C 56 % 1001 hPa 0,0 l/m 8,7 m/s (5 Bft) O 0,00 h 35,7 klux 6,5 C 7,7 C
21.04.2008 15:00 15,3 C 16,3 C 15,3 C 56 % 1001 hPa 0,0 l/m 9,4 m/s (5 Bft) O 0,00 h 30,1 klux 6,4 C 7,5 C
21.04.2008 16:00 15,5 C 16,4 C 15,2 C 55 % 1001 hPa 0,0 l/m 8,0 m/s (4 Bft) O-SO 0,00 h 25,7 klux 6,5 C 8,7 C
21.04.2008 17:00 15,0 C 16,3 C 14,7 C 56 % 1001 hPa 0,0 l/m 8,9 m/s (5 Bft) O-SO 0,00 h 21,9 klux 6,2 C 7,4 C
21.04.2008 18:00 14,4 C 15,0 C 13,8 C 57 % 1001 hPa 0,0 l/m 7,0 m/s (4 Bft) O 0,00 h 11,9 klux 6,0 C 8,0 C
21.04.2008 19:00 13,8 C 14,2 C 12,9 C 57 % 1002 hPa 0,0 l/m 7,7 m/s (4 Bft) O 0,00 h 6,12 klux 5,4 C 6,5 C
21.04.2008 20:00 12,8 C 13,1 C 11,7 C 58 % 1002 hPa 0,0 l/m 6,7 m/s (4 Bft) O 0,00 h 554 lux 4,8 C 6,1 C
21.04.2008 21:00 11,8 C 12,0 C 10,6 C 61 % 1002 hPa 0,0 l/m 4,5 m/s (3 Bft) O 0,00 h 30 lux 4,5 C 7,1 C
21.04.2008 22:00 11,5 C 11,6 C 10,3 C 61 % 1003 hPa 0,0 l/m 5,8 m/s (4 Bft) O 0,00 h 0 lux 4,3 C 5,0 C
21.04.2008 23:00 11,2 C 11,4 C 10,1 C 61 % 1002 hPa 0,0 l/m 4,4 m/s (3 Bft) O 0,00 h 0 lux 4,0 C 6,5 C
22.04.2008 00:00 11,0 C 11,2 C 9,9 C 62 % 1002 hPa 0,0 l/m 4,1 m/s (3 Bft) O 0,00 h 0 lux 4,1 C 6,6 C
22.04.2008 01:00 10,8 C 11,0 C 9,7 C 63 % 1002 hPa 0,0 l/m 4,1 m/s (3 Bft) O 0,00 h 0 lux 4,0 C 6,4 C
22.04.2008 02:00 10,5 C 10,8 C 9,5 C 64 % 1002 hPa 0,0 l/m 3,7 m/s (3 Bft) O 0,00 h 0 lux 4,0 C 6,7 C
22.04.2008 03:00 10,2 C 10,5 C 9,2 C 65 % 1002 hPa 0,0 l/m 2,4 m/s (2 Bft) O 0,00 h 0 lux 4,0 C 8,7 C
22.04.2008 04:00 9,8 C 10,3 C 8,9 C 67 % 1003 hPa 0,0 l/m 2,4 m/s (2 Bft) O 0,00 h 0 lux 4,0 C 7,7 C
22.04.2008 05:00 9,4 C 9,8 C 8,5 C 69 % 1003 hPa 0,0 l/m 3,2 m/s (2 Bft) O-NO 0,00 h 0 lux 4,0 C 6,1 C
22.04.2008 06:00 9,1 C 9,5 C 8,2 C 71 % 1003 hPa 0,0 l/m 3,0 m/s (2 Bft) O 0,00 h 996 lux 4,2 C 6,3 C
22.04.2008 07:00 9,3 C 9,3 C 8,4 C 72 % 1003 hPa 0,0 l/m 4,1 m/s (3 Bft) O 0,00 h 5,69 klux 4,5 C 4,6 C
22.04.2008 08:00 9,9 C 10,1 C 9,3 C 70 % 1004 hPa 0,0 l/m 4,0 m/s (3 Bft) O-NO 0,00 h 7,34 klux 4,7 C 5,5 C
22.04.2008 09:00 10,2 C 10,6 C 9,8 C 70 % 1004 hPa 0,0 l/m 3,6 m/s (3 Bft) O-NO 0,00 h 11,3 klux 4,9 C 6,5 C
22.04.2008 10:00 10,8 C 11,4 C 10,8 C 68 % 1005 hPa 0,0 l/m 4,6 m/s (3 Bft) O-NO 0,00 h 16,1 klux 5,2 C 5,6 C
22.04.2008 11:00 10,0 C 11,0 C 10,0 C 72 % 1006 hPa 0,0 l/m 4,9 m/s (3 Bft) O 0,00 h 9,8 klux 5,2 C 4,4 C
22.04.2008 12:00 10,6 C 11,1 C 10,5 C 72 % 1006 hPa 0,0 l/m 3,9 m/s (3 Bft) O-SO 0,00 h 17,8 klux 5,7 C 6,4 C
22.04.2008 13:00 13,0 C 13,6 C 13,3 C 63 % 1007 hPa 0,0 l/m 6,0 m/s (4 Bft) O-SO 0,08 h 39,2 klux 6,1 C 7,0 C
22.04.2008 14:00 13,7 C 15,0 C 14,1 C 62 % 1008 hPa 0,0 l/m 4,4 m/s (3 Bft) O 0,00 h 29,9 klux 6,4 C 9,6 C
22.04.2008 15:00 13,0 C 14,4 C 13,6 C 61 % 1008 hPa 0,0 l/m 6,8 m/s (4 Bft) O 0,00 h 21,9 klux 5,8 C 6,2 C
22.04.2008 16:00 11,3 C 12,6 C 11,7 C 66 % 1009 hPa 0,0 l/m 5,4 m/s (3 Bft) O 0,00 h 9,8 klux 5,1 C 5,3 C
22.04.2008 17:00 10,6 C 11,7 C 11,0 C 69 % 1009 hPa 0,0 l/m 4,2 m/s (3 Bft) O-SO 0,00 h 9,7 klux 5,1 C 6,2 C
22.04.2008 18:00 11,6 C 12,2 C 11,5 C 66 % 1010 hPa 0,0 l/m 3,4 m/s (3 Bft) O-SO 0,00 h 9,8 klux 5,3 C 8,5 C
22.04.2008 19:00 11,5 C 12,1 C 10,9 C 64 % 1010 hPa 0,0 l/m 2,4 m/s (2 Bft) O-SO 0,00 h 3,61 klux 4,9 C 10,1 C
22.04.2008 20:00 10,1 C 10,9 C 9,1 C 67 % 1011 hPa 0,0 l/m 0,5 m/s (1 Bft) O 0,00 h 576 lux 4,2 C 10,0 C
22.04.2008 21:00 7,3 C 8,4 C 6,7 C 74 % 1011 hPa 0,0 l/m 0,0 m/s (0 Bft) N 0,00 h 11 lux 2,9 C 7,3 C
22.04.2008 22:00 6,5 C 7,4 C 6,5 C 78 % 1013 hPa 0,0 l/m 0,0 m/s (0 Bft) N 0,00 h 0 lux 3,0 C 6,5 C
22.04.2008 23:00 6,4 C 7,4 C 6,4 C 80 % 1013 hPa 0,0 l/m 0,0 m/s (0 Bft) N 0,00 h 0 lux 3,3 C 6,4 C
23.04.2008 00:00 5,4 C 6,5 C 5,0 C 82 % 1013 hPa 0,0 l/m 0,0 m/s (0 Bft) N 0,00 h 0 lux 2,6 C 5,4 C
23.04.2008 01:00 4,3 C 5,2 C 4,2 C 85 % 1013 hPa 0,0 l/m 0,0 m/s (0 Bft) N 0,00 h 0 lux 1,9 C 4,3 C
23.04.2008 02:00 3,3 C 4,3 C 3,4 C 86 % 1014 hPa 0,0 l/m 0,1 m/s (0 Bft) O-NO 0,00 h 0 lux 1,1 C 3,3 C
23.04.2008 03:00 2,7 C 3,7 C 2,9 C 89 % 1014 hPa 0,0 l/m 0,0 m/s (0 Bft) N 0,00 h 0 lux 1,0 C 2,7 C
23.04.2008 04:00 3,5 C 4,1 C 3,7 C 91 % 1014 hPa 0,0 l/m 0,3 m/s (0 Bft) W 0,00 h 0 lux 2,1 C 3,5 C
23.04.2008 05:00 3,5 C 4,3 C 3,4 C 89 % 1014 hPa 0,0 l/m 0,0 m/s (0 Bft) N 0,00 h 0 lux 1,9 C 3,5 C
23.04.2008 06:00 3,0 C 4,0 C 3,2 C 89 % 1014 hPa 0,0 l/m 0,0 m/s (0 Bft) N 0,00 h 1,23 klux 1,4 C 3,0 C
23.04.2008 07:00 6,9 C 3,6 C 5,7 C 80 % 1014 hPa 0,0 l/m 0,0 m/s (0 Bft) N 0,17 h 13,6 klux 3,8 C 6,9 C
23.04.2008 08:00 8,0 C 4,9 C 8,2 C 75 % 1014 hPa 0,0 l/m 0,0 m/s (0 Bft) N 1,00 h 28,7 klux 3,9 C 8,0 C
23.04.2008 09:00 10,5 C 8,0 C 10,8 C 70 % 1014 hPa 0,0 l/m 2,5 m/s (2 Bft) SO 1,00 h 41,9 klux 5,2 C 8,1 C
23.04.2008 10:00 13,5 C 13,1 C 12,5 C 57 % 1015 hPa 0,0 l/m 3,9 m/s (3 Bft) SO 0,92 h 53,1 klux 5,1 C 9,8 C
23.04.2008 11:00 15,0 C 18,7 C 16,3 C 47 % 1018 hPa 0,0 l/m 4,6 m/s (3 Bft) S-SO 0,83 h 64,0 klux 3,6 C 10,8 C
23.04.2008 12:00 15,8 C 18,8 C 16,6 C 40 % 1018 hPa 0,0 l/m 4,5 m/s (3 Bft) SO 0,08 h 28,6 klux 2,1 C 12,1 C
23.04.2008 13:00 15,7 C 17,3 C 16,1 C 43 % 1018 hPa 0,0 l/m 4,3 m/s (3 Bft) SO 0,42 h 53,1 klux 3,0 C 12,1 C
23.04.2008 14:00 15,9 C 21,1 C 13,9 C 40 % 1018 hPa 0,0 l/m 5,3 m/s (3 Bft) O-SO 0,42 h 44,9 klux 2,4 C 11,2 C
23.04.2008 15:00 15,9 C 18,4 C 14,8 C 41 % 1018 hPa 0,0 l/m 4,1 m/s (3 Bft) O-SO 0,08 h 29,3 klux 2,5 C 12,4 C
23.04.2008 16:00 16,7 C 19,8 C 15,2 C 38 % 1018 hPa 0,0 l/m 4,6 m/s (3 Bft) O-SO 0,42 h 40,1 klux 2,4 C 12,9 C
23.04.2008 17:00 17,1 C 23,4 C 15,5 C 38 % 1018 hPa 0,0 l/m 3,7 m/s (3 Bft) O-SO 0,75 h 36,5 klux 2,5 C 14,4 C
23.04.2008 18:00 17,1 C 23,8 C 16,8 C 38 % 1018 hPa 0,0 l/m 4,0 m/s (3 Bft) SO 0,92 h 28,3 klux 2,5 C 14,0 C
23.04.2008 19:00 17,1 C 20,1 C 14,4 C 38 % 1018 hPa 0,0 l/m 2,6 m/s (2 Bft) SO 0,25 h 9,1 klux 2,5 C 15,6 C
23.04.2008 20:00 12,3 C 14,3 C 10,7 C 51 % 1019 hPa 0,0 l/m 0,0 m/s (0 Bft) N 0,00 h 521 lux 2,4 C 12,3 C
23.04.2008 21:00 9,2 C 11,0 C 8,4 C 62 % 1019 hPa 0,0 l/m 0,0 m/s (0 Bft) N 0,00 h 13 lux 2,2 C 9,2 C
23.04.2008 22:00 7,6 C 9,0 C 7,3 C 68 % 1020 hPa 0,0 l/m 0,0 m/s (0 Bft) N 0,00 h 0 lux 2,0 C 7,6 C
23.04.2008 23:00 6,8 C 8,0 C 6,7 C 72 % 1020 hPa 0,0 l/m 0,0 m/s (0 Bft) N 0,00 h 0 lux 2,1 C 6,8 C
24.04.2008 00:00 6,6 C 7,6 C 6,4 C 74 % 1020 hPa 0,0 l/m 0,0 m/s (0 Bft) N 0,00 h 0 lux 2,2 C 6,6 C
24.04.2008 01:00 6,0 C 7,2 C 6,1 C 76 % 1020 hPa 0,0 l/m 0,0 m/s (0 Bft) N 0,00 h 0 lux 2,1 C 6,0 C
24.04.2008 02:00 6,4 C 7,5 C 6,4 C 78 % 1020 hPa 0,0 l/m 0,0 m/s (0 Bft) N 0,00 h 0 lux 2,9 C 6,4 C
24.04.2008 03:00 6,5 C 7,5 C 6,5 C 80 % 1020 hPa 0,0 l/m 0,0 m/s (0 Bft) N 0,00 h 0 lux 3,3 C 6,5 C
24.04.2008 04:00 6,8 C 7,6 C 6,6 C 80 % 1020 hPa 0,0 l/m 0,7 m/s (1 Bft) W-SW 0,00 h 0 lux 3,7 C 6,7 C
24.04.2008 05:00 6,8 C 7,6 C 6,4 C 86 % 1020 hPa 1,8 l/m 1,4 m/s (1 Bft) O 0,00 h 0 lux 4,5 C 6,1 C
24.04.2008 06:00 6,9 C 7,6 C 6,5 C 89 % 1020 hPa 1,8 l/m 0,3 m/s (1 Bft) W-SW 0,00 h 153 lux 5,3 C 6,9 C
24.04.2008 07:00 7,3 C 7,9 C 6,9 C 90 % 1021 hPa 0,0 l/m 0,0 m/s (0 Bft) SO 0,00 h 3,06 klux 5,7 C 7,3 C
24.04.2008 08:00 8,5 C 8,8 C 7,7 C 89 % 1021 hPa 0,0 l/m 0,1 m/s (0 Bft) N 0,00 h 10,4 klux 6,8 C 8,5 C
24.04.2008 09:00 11,1 C 11,0 C 9,9 C 82 % 1022 hPa 0,0 l/m 0,8 m/s (1 Bft) O-SO 0,33 h 32,3 klux 8,1 C 11,1 C
24.04.2008 10:00 13,0 C 13,8 C 11,7 C 77 % 1022 hPa 0,0 l/m 1,0 m/s (1 Bft) O-SO 0,25 h 41,8 klux 9,1 C 12,9 C
24.04.2008 11:00 15,2 C 17,6 C 14,4 C 68 % 1022 hPa 0,0 l/m 1,6 m/s (2 Bft) W-SW 0,75 h 62,6 klux 9,2 C 14,7 C
24.04.2008 12:00 15,2 C 18,7 C 15,9 C 62 % 1022 hPa 0,0 l/m 2,3 m/s (2 Bft) W-SW 0,17 h 30,6 klux 8,0 C 13,9 C
24.04.2008 13:00 16,5 C 19,8 C 16,8 C 56 % 1022 hPa 0,0 l/m 2,2 m/s (2 Bft) S 0,42 h 56,7 klux 7,7 C 15,6 C
24.04.2008 14:00 15,7 C 17,7 C 15,9 C 54 % 1022 hPa 0,0 l/m 3,9 m/s (3 Bft) W 0,00 h 22,4 klux 6,5 C 12,7 C
24.04.2008 15:00 16,8 C 21,1 C 16,0 C 50 % 1021 hPa 0,0 l/m 4,6 m/s (3 Bft) W 0,67 h 56,0 klux 6,4 C 13,0 C
24.04.2008 16:00 16,7 C 21,3 C 15,8 C 46 % 1021 hPa 0,0 l/m 5,6 m/s (4 Bft) W 0,67 h 46,0 klux 4,9 C 12,2 C
24.04.2008 17:00 17,0 C 22,2 C 15,8 C 42 % 1021 hPa 0,0 l/m 3,9 m/s (3 Bft) W 0,48 h 32,1 klux 4,0 C 14,0 C
24.04.2008 18:00 16,7 C 21,0 C 16,2 C 39 % 1021 hPa 0,0 l/m 4,6 m/s (3 Bft) W 0,25 h 16,9 klux 2,8 C 12,9 C
24.04.2008 19:00 15,7 C 17,5 C 14,3 C 43 % 1021 hPa 0,0 l/m 2,2 m/s (2 Bft) W-SW 0,00 h 6,99 klux 3,0 C 14,5 C
24.04.2008 20:00 12,9 C 14,5 C 11,5 C 53 % 1021 hPa 0,0 l/m 0,1 m/s (0 Bft) W-SW 0,00 h 653 lux 3,6 C 12,9 C
24.04.2008 21:00 11,3 C 12,7 C 10,7 C 61 % 1021 hPa 0,0 l/m 0,0 m/s (0 Bft) N 0,00 h 11 lux 4,0 C 11,3 C
24.04.2008 22:00 9,4 C 10,8 C 8,9 C 70 % 1021 hPa 0,0 l/m 0,3 m/s (0 Bft) W 0,00 h 0 lux 4,1 C 9,4 C
24.04.2008 23:00 8,1 C 9,3 C 7,8 C 75 % 1021 hPa 0,0 l/m 0,0 m/s (0 Bft) N-NO 0,00 h 0 lux 4,0 C 8,1 C
25.04.2008 00:00 9,7 C 10,1 C 9,0 C 75 % 1021 hPa 0,0 l/m 7,7 m/s (4 Bft) W-NW 0,00 h 0 lux 5,5 C 1,6 C
25.04.2008 01:00 8,0 C 9,2 C 7,4 C 83 % 1021 hPa 2,5 l/m 5,5 m/s (4 Bft) W-NW 0,00 h 0 lux 5,3 C 1,6 C
25.04.2008 02:00 7,1 C 8,2 C 7,2 C 88 % 1021 hPa 0,0 l/m 1,0 m/s (1 Bft) W 0,00 h 0 lux 5,2 C 7,1 C
25.04.2008 03:00 6,8 C 7,8 C 6,8 C 88 % 1021 hPa 0,0 l/m 0,4 m/s (1 Bft) W 0,00 h 0 lux 5,1 C 6,6 C
25.04.2008 04:00 7,4 C 8,0 C 6,8 C 89 % 1021 hPa 0,0 l/m 3,4 m/s (2 Bft) W 0,00 h 0 lux 5,8 C 3,7 C
25.04.2008 05:00 7,6 C 8,0 C 6,6 C 89 % 1021 hPa 0,4 l/m 4,1 m/s (3 Bft) W 0,00 h 0 lux 5,8 C 2,3 C
25.04.2008 06:00 7,7 C 8,1 C 6,8 C 89 % 1021 hPa 0,0 l/m 3,2 m/s (2 Bft) W 0,00 h 1,27 klux 6,0 C 4,4 C
25.04.2008 07:00 8,3 C 8,4 C 7,2 C 87 % 1021 hPa 0,0 l/m 3,3 m/s (2 Bft) W 0,00 h 8,12 klux 6,2 C 4,6 C
25.04.2008 08:00 9,5 C 9,2 C 8,7 C 82 % 1025 hPa 0,0 l/m 3,6 m/s (3 Bft) W 0,08 h 17,9 klux 6,5 C 5,5 C
25.04.2008 09:00 10,1 C 10,3 C 9,9 C 76 % 1025 hPa 0,0 l/m 4,5 m/s (3 Bft) W 0,00 h 17,9 klux 6,2 C 4,9 C
25.04.2008 10:00 11,2 C 11,7 C 11,3 C 70 % 1025 hPa 0,0 l/m 5,3 m/s (3 Bft) W-NW 0,25 h 38,9 klux 5,8 C 5,4 C
25.04.2008 11:00 12,1 C 13,5 C 13,0 C 66 % 1025 hPa 0,0 l/m 5,3 m/s (3 Bft) W 0,35 h 46,5 klux 6,0 C 6,5 C
25.04.2008 12:00 12,7 C 15,2 C 14,4 C 63 % 1027 hPa 0,0 l/m 5,4 m/s (3 Bft) W-NW 0,50 h 54,7 klux 5,9 C 7,2 C
25.04.2008 13:00 13,5 C 16,5 C 14,4 C 57 % 1027 hPa 0,0 l/m 6,3 m/s (4 Bft) W-NW 0,33 h 43,9 klux 5,2 C 7,3 C
25.04.2008 14:00 14,3 C 17,0 C 14,7 C 54 % 1026 hPa 0,0 l/m 6,0 m/s (4 Bft) W 0,33 h 52,1 klux 5,2 C 8,7 C
25.04.2008 15:00 14,7 C 17,1 C 14,7 C 51 % 1026 hPa 0,0 l/m 6,5 m/s (4 Bft) W 0,33 h 40,0 klux 4,7 C 8,6 C
25.04.2008 16:00 15,7 C 20,0 C 15,2 C 47 % 1026 hPa 0,0 l/m 6,8 m/s (4 Bft) W 0,92 h 53,7 klux 4,3 C 9,7 C
25.04.2008 17:00 15,8 C 21,1 C 15,2 C 43 % 1026 hPa 0,0 l/m 6,1 m/s (4 Bft) W 0,75 h 40,6 klux 3,3 C 10,5 C
25.04.2008 18:00 15,3 C 18,9 C 15,3 C 44 % 1026 hPa 0,0 l/m 4,4 m/s (3 Bft) W 0,00 h 19,5 klux 3,1 C 11,5 C
25.04.2008 19:00 14,7 C 16,5 C 13,5 C 46 % 1026 hPa 0,0 l/m 4,0 m/s (3 Bft) W 0,00 h 9,5 klux 3,1 C 11,2 C
25.04.2008 20:00 12,5 C 13,7 C 11,5 C 55 % 1026 hPa 0,0 l/m 2,8 m/s (2 Bft) W 0,00 h 725 lux 3,7 C 10,3 C
25.04.2008 21:00 10,5 C 11,7 C 9,5 C 62 % 1026 hPa 0,0 l/m 1,1 m/s (1 Bft) W-NW 0,00 h 30 lux 3,6 C 10,3 C
25.04.2008 22:00 8,6 C 10,0 C 8,1 C 69 % 1028 hPa 0,0 l/m 0,0 m/s (0 Bft) N 0,00 h 0 lux 3,3 C 8,6 C
25.04.2008 23:00 7,2 C 8,6 C 7,5 C 76 % 1028 hPa 0,0 l/m 0,0 m/s (0 Bft) N 0,00 h 0 lux 3,2 C 7,2 C
26.04.2008 00:00 6,6 C 7,8 C 6,5 C 79 % 1028 hPa 0,0 l/m 0,0 m/s (0 Bft) N 0,00 h 0 lux 3,2 C 6,6 C
26.04.2008 01:00 5,5 C 6,5 C 5,7 C 81 % 1028 hPa 0,0 l/m 0,0 m/s (0 Bft) N 0,00 h 0 lux 2,4 C 5,5 C
26.04.2008 02:00 4,4 C 5,6 C 4,9 C 84 % 1028 hPa 0,0 l/m 0,0 m/s (0 Bft) N 0,00 h 0 lux 1,9 C 4,4 C
26.04.2008 03:00 4,3 C 5,2 C 4,6 C 88 % 1028 hPa 0,0 l/m 0,4 m/s (1 Bft) W 0,00 h 0 lux 2,5 C 4,3 C
26.04.2008 04:00 3,9 C 5,0 C 4,2 C 88 % 1028 hPa 0,0 l/m 0,0 m/s (0 Bft) N 0,00 h 0 lux 2,0 C 3,9 C
26.04.2008 05:00 3,2 C 4,3 C 3,6 C 88 % 1028 hPa 0,0 l/m 0,0 m/s (0 Bft) N 0,00 h 75 lux 1,5 C 3,2 C
26.04.2008 06:00 3,2 C 3,9 C 3,7 C 89 % 1028 hPa 0,0 l/m 0,0 m/s (0 Bft) N 0,00 h 1,71 klux 1,5 C 3,2 C
26.04.2008 07:00 4,5 C 4,2 C 4,9 C 87 % 1028 hPa 0,0 l/m 0,1 m/s (0 Bft) W-SW 0,00 h 8,37 klux 2,5 C 4,5 C
26.04.2008 08:00 7,8 C 6,1 C 8,4 C 82 % 1028 hPa 0,0 l/m 0,0 m/s (0 Bft) N 0,50 h 28,8 klux 4,8 C 7,8 C
26.04.2008 09:00 11,2 C 9,8 C 11,8 C 74 % 1028 hPa 0,0 l/m 0,0 m/s (0 Bft) N 0,08 h 25,4 klux 6,6 C 11,2 C
26.04.2008 10:00 13,6 C 13,3 C 14,3 C 66 % 1028 hPa 0,0 l/m 0,4 m/s (1 Bft) W-SW 0,17 h 39,9 klux 7,2 C 13,5 C
26.04.2008 11:00 15,6 C 16,7 C 16,7 C 52 % 1028 hPa 0,0 l/m 2,2 m/s (2 Bft) W-SW 0,25 h 51,2 klux 5,8 C 14,5 C
26.04.2008 12:00 16,8 C 20,2 C 18,6 C 44 % 1028 hPa 0,0 l/m 3,5 m/s (3 Bft) S-SO 0,75 h 69,0 klux 4,4 C 14,3 C
26.04.2008 13:00 17,9 C 21,9 C 19,4 C 41 % 1028 hPa 0,0 l/m 2,8 m/s (2 Bft) S 0,50 h 63,7 klux 4,2 C 16,3 C
26.04.2008 14:00 18,3 C 23,1 C 19,0 C 37 % 1027 hPa 0,0 l/m 2,4 m/s (2 Bft) W-SW 0,33 h 48,1 klux 3,5 C 17,3 C
26.04.2008 15:00 17,9 C 20,9 C 18,3 C 41 % 1027 hPa 0,0 l/m 3,1 m/s (2 Bft) SO 0,08 h 35,4 klux 4,5 C 15,9 C
26.04.2008 16:00 18,1 C 23,0 C 17,9 C 43 % 1027 hPa 0,0 l/m 3,9 m/s (3 Bft) SO 0,33 h 37,4 klux 5,1 C 15,2 C
26.04.2008 17:00 17,8 C 20,0 C 17,5 C 42 % 1026 hPa 0,0 l/m 2,4 m/s (2 Bft) S-SO 0,00 h 17,9 klux 4,7 C 16,6 C
26.04.2008 18:00 17,1 C 21,0 C 17,1 C 43 % 1026 hPa 0,0 l/m 2,9 m/s (2 Bft) SO 0,08 h 22,1 klux 4,5 C 15,4 C
26.04.2008 19:00 17,1 C 19,5 C 15,3 C 44 % 1026 hPa 0,0 l/m 2,5 m/s (2 Bft) SO 0,00 h 10,8 klux 4,6 C 15,9 C
26.04.2008 20:00 14,2 C 15,5 C 12,7 C 52 % 1026 hPa 0,0 l/m 0,7 m/s (1 Bft) O 0,00 h 1,55 klux 4,4 C 14,1 C
26.04.2008 21:00 11,2 C 12,4 C 10,4 C 60 % 1026 hPa 0,0 l/m 0,0 m/s (0 Bft) N 0,00 h 16 lux 3,7 C 11,2 C
26.04.2008 22:00 9,0 C 10,4 C 8,8 C 68 % 1026 hPa 0,0 l/m 0,0 m/s (0 Bft) N 0,00 h 0 lux 3,4 C 9,0 C
26.04.2008 23:00 7,8 C 9,0 C 7,7 C 72 % 1026 hPa 0,0 l/m 0,0 m/s (0 Bft) N 0,00 h 0 lux 3,0 C 7,8 C
27.04.2008 00:00 6,7 C 7,7 C 6,7 C 76 % 1026 hPa 0,0 l/m 0,0 m/s (0 Bft) N 0,00 h 0 lux 2,7 C 6,7 C
27.04.2008 01:00 5,8 C 6,8 C 6,0 C 78 % 1026 hPa 0,0 l/m 0,0 m/s (0 Bft) N 0,00 h 0 lux 2,4 C 5,8 C
27.04.2008 02:00 4,9 C 6,0 C 5,1 C 81 % 1026 hPa 0,0 l/m 0,0 m/s (0 Bft) N 0,00 h 0 lux 1,8 C 4,9 C
27.04.2008 03:00 4,1 C 5,2 C 4,5 C 83 % 1025 hPa 0,0 l/m 0,0 m/s (0 Bft) N 0,00 h 0 lux 1,4 C 4,1 C
27.04.2008 04:00 3,4 C 4,4 C 3,9 C 84 % 1025 hPa 0,0 l/m 0,0 m/s (0 Bft) N 0,00 h 0 lux 0,9 C 3,4 C
27.04.2008 05:00 3,0 C 3,8 C 3,4 C 85 % 1025 hPa 0,0 l/m 0,0 m/s (0 Bft) N 0,00 h 100 lux 0,7 C 3,0 C
27.04.2008 06:00 3,1 C 3,5 C 3,6 C 86 % 1024 hPa 0,0 l/m 0,0 m/s (0 Bft) N 0,00 h 2,87 klux 1,0 C 3,1 C
27.04.2008 07:00 6,5 C 4,1 C 6,3 C 78 % 1024 hPa 0,0 l/m 0,0 m/s (0 Bft) N 0,00 h 12,9 klux 3,0 C 6,5 C
27.04.2008 08:00 8,4 C 5,8 C 9,3 C 76 % 1023 hPa 0,0 l/m 0,0 m/s (0 Bft) SO 0,58 h 29,4 klux 4,3 C 8,4 C
27.04.2008 09:00 12,7 C 9,8 C 13,0 C 63 % 1023 hPa 0,0 l/m 2,9 m/s (2 Bft) SO 0,83 h 43,4 klux 5,7 C 10,5 C
27.04.2008 10:00 16,0 C 15,5 C 15,3 C 48 % 1023 hPa 0,0 l/m 4,2 m/s (3 Bft) S-SO 1,00 h 54,5 klux 5,0 C 12,5 C
27.04.2008 11:00 17,5 C 20,0 C 18,3 C 40 % 1022 hPa 0,0 l/m 6,1 m/s (4 Bft) S-SO 0,75 h 60,1 klux 3,8 C 12,6 C
27.04.2008 12:00 18,5 C 21,4 C 20,2 C 39 % 1022 hPa 0,0 l/m 5,7 m/s (4 Bft) SO 0,75 h 63,0 klux 4,2 C 14,1 C
27.04.2008 13:00 19,0 C 22,5 C 19,8 C 37 % 1021 hPa 0,0 l/m 5,0 m/s (3 Bft) SO 0,33 h 58,3 klux 4,2 C 15,4 C
27.04.2008 14:00 19,1 C 22,3 C 19,0 C 36 % 1021 hPa 0,0 l/m 5,3 m/s (3 Bft) SO 0,00 h 48,2 klux 3,4 C 15,2 C
27.04.2008 15:00 19,5 C 22,3 C 19,3 C 35 % 1020 hPa 0,0 l/m 5,0 m/s (3 Bft) SO 0,00 h 44,7 klux 3,6 C 16,1 C
27.04.2008 16:00 19,3 C 22,7 C 19,0 C 33 % 1019 hPa 0,0 l/m 5,8 m/s (4 Bft) SO 0,08 h 38,2 klux 2,8 C 15,2 C
27.04.2008 17:00 19,7 C 22,7 C 19,1 C 33 % 1019 hPa 0,0 l/m 5,3 m/s (3 Bft) SO 0,58 h 37,8 klux 2,8 C 16,1 C
27.04.2008 18:00 18,9 C 21,3 C 18,3 C 35 % 1017 hPa 0,0 l/m 4,3 m/s (3 Bft) SO 0,00 h 19,7 klux 3,2 C 16,0 C
27.04.2008 19:00 17,9 C 19,0 C 16,6 C 38 % 1016 hPa 0,0 l/m 3,6 m/s (3 Bft) O-SO 0,17 h 8,95 klux 3,3 C 15,4 C
27.04.2008 20:00 15,9 C 16,6 C 14,4 C 43 % 1016 hPa 0,0 l/m 1,0 m/s (1 Bft) O 0,25 h 1,79 klux 3,4 C 15,7 C
27.04.2008 21:00 12,9 C 13,9 C 11,8 C 53 % 1015 hPa 0,0 l/m 0,0 m/s (0 Bft) N 0,00 h 21 lux 3,7 C 12,9 C
27.04.2008 22:00 10,5 C 11,8 C 10,0 C 62 % 1015 hPa 0,0 l/m 0,0 m/s (0 Bft) N 0,00 h 0 lux 3,6 C 10,5 C
27.04.2008 23:00 9,2 C 10,4 C 8,8 C 68 % 1015 hPa 0,0 l/m 0,0 m/s (0 Bft) N 0,00 h 0 lux 3,5 C 9,2 C
Min-Datum _ 23.04.08 27.04.08 23.04.08 27.04.08 21.04.08 - 22.04.08 - - - 23.04.08 21.04.08
_ Min-Zeit 03:32 06:17 03:12 16:42 13:02 - 20:22 - - - 12:07 04:47
Minimum _ 2,5 C 3,4 C 2,7 C 31 % 1001 hPa - 0,0 m/s (0 Bft) - - - 0,2 C -2,7 C
Max-Datum _ 27.04.08 24.04.08 27.04.08 21.04.08 25.04.08 25.04.08 25.04.08 - 21.04.08 26.04.08 24.04.08 27.04.08
_ Max-Zeit 17:37 17:07 12:12 06:42 22:07 01:42 00:42 - 12:22 13:47 10:57 15:17
Maximum _ 20,0 C 24,6 C 20,6 C 92 % 1028 hPa 2,5 l/m 11,5 m/s
W-NW (6 Bft)
- 0,10 h 88,0 klux 9,7 C 18,8 C
Durchschnitt _ 10,9 C 12,2 C 10,7 C 66 % 1017 hPa #6,5 l/m 2,9 m/s (2 Bft) O #25:11 h 17,3 klux 4,2 C 8,3 C